sensor_id;sensor_type;location;lat;lon;timestamp;P1;durP1;ratioP1;P2;durP2;ratioP2
14048;SDS011;7099;53.922;10.728;2023-04-25T00:01:27;6.73;;;3.27;;
14048;SDS011;7099;53.922;10.728;2023-04-25T00:05:33;4.60;;;3.93;;
14048;SDS011;7099;53.922;10.728;2023-04-25T00:09:42;5.40;;;3.37;;
14048;SDS011;7099;53.922;10.728;2023-04-25T00:13:47;11.67;;;4.10;;
14048;SDS011;7099;53.922;10.728;2023-04-25T00:17:54;6.87;;;3.00;;
14048;SDS011;7099;53.922;10.728;2023-04-25T00:22:01;10.60;;;2.97;;
14048;SDS011;7099;53.922;10.728;2023-04-25T00:26:06;14.27;;;3.80;;
14048;SDS011;7099;53.922;10.728;2023-04-25T00:30:12;7.23;;;3.40;;
14048;SDS011;7099;53.922;10.728;2023-04-25T00:34:19;14.30;;;3.60;;
14048;SDS011;7099;53.922;10.728;2023-04-25T00:38:25;12.03;;;2.50;;
14048;SDS011;7099;53.922;10.728;2023-04-25T00:42:31;10.40;;;3.33;;
14048;SDS011;7099;53.922;10.728;2023-04-25T00:46:37;14.60;;;3.07;;
14048;SDS011;7099;53.922;10.728;2023-04-25T00:50:48;8.40;;;2.47;;
14048;SDS011;7099;53.922;10.728;2023-04-25T00:55:00;8.80;;;2.97;;
14048;SDS011;7099;53.922;10.728;2023-04-25T00:59:06;11.70;;;3.37;;
14048;SDS011;7099;53.922;10.728;2023-04-25T01:03:12;11.07;;;3.50;;
14048;SDS011;7099;53.922;10.728;2023-04-25T01:07:22;18.97;;;3.00;;
14048;SDS011;7099;53.922;10.728;2023-04-25T01:11:27;5.07;;;1.97;;
14048;SDS011;7099;53.922;10.728;2023-04-25T01:15:33;14.03;;;3.20;;
14048;SDS011;7099;53.922;10.728;2023-04-25T01:19:41;7.63;;;2.77;;
14048;SDS011;7099;53.922;10.728;2023-04-25T01:23:47;14.43;;;3.10;;
14048;SDS011;7099;53.922;10.728;2023-04-25T01:27:53;16.60;;;4.00;;
14048;SDS011;7099;53.922;10.728;2023-04-25T01:32:02;18.77;;;3.13;;
14048;SDS011;7099;53.922;10.728;2023-04-25T01:36:08;13.53;;;3.70;;
14048;SDS011;7099;53.922;10.728;2023-04-25T01:40:14;10.87;;;2.97;;
14048;SDS011;7099;53.922;10.728;2023-04-25T01:44:20;10.00;;;3.10;;
14048;SDS011;7099;53.922;10.728;2023-04-25T01:48:25;15.00;;;3.47;;
14048;SDS011;7099;53.922;10.728;2023-04-25T01:52:31;12.93;;;3.10;;
14048;SDS011;7099;53.922;10.728;2023-04-25T01:56:37;17.30;;;2.70;;
14048;SDS011;7099;53.922;10.728;2023-04-25T02:00:44;12.77;;;3.20;;
14048;SDS011;7099;53.922;10.728;2023-04-25T02:04:50;17.00;;;3.97;;
14048;SDS011;7099;53.922;10.728;2023-04-25T02:08:55;17.57;;;3.73;;
14048;SDS011;7099;53.922;10.728;2023-04-25T02:13:01;17.10;;;3.57;;
14048;SDS011;7099;53.922;10.728;2023-04-25T02:17:07;15.93;;;4.40;;
14048;SDS011;7099;53.922;10.728;2023-04-25T02:21:13;24.30;;;3.67;;
14048;SDS011;7099;53.922;10.728;2023-04-25T02:25:19;13.80;;;2.90;;
14048;SDS011;7099;53.922;10.728;2023-04-25T02:29:25;11.13;;;2.60;;
14048;SDS011;7099;53.922;10.728;2023-04-25T02:33:30;17.80;;;2.90;;
14048;SDS011;7099;53.922;10.728;2023-04-25T02:37:36;11.80;;;2.80;;
14048;SDS011;7099;53.922;10.728;2023-04-25T02:41:44;14.80;;;3.27;;
14048;SDS011;7099;53.922;10.728;2023-04-25T02:45:49;12.00;;;3.10;;
14048;SDS011;7099;53.922;10.728;2023-04-25T02:49:55;16.73;;;3.47;;
14048;SDS011;7099;53.922;10.728;2023-04-25T02:54:01;12.20;;;3.83;;
14048;SDS011;7099;53.922;10.728;2023-04-25T02:58:07;15.50;;;3.10;;
14048;SDS011;7099;53.922;10.728;2023-04-25T03:02:12;17.47;;;3.27;;
14048;SDS011;7099;53.922;10.728;2023-04-25T03:06:18;19.57;;;3.60;;
14048;SDS011;7099;53.922;10.728;2023-04-25T03:10:23;21.77;;;3.03;;
14048;SDS011;7099;53.922;10.728;2023-04-25T03:14:29;20.33;;;3.60;;
14048;SDS011;7099;53.922;10.728;2023-04-25T03:18:35;14.17;;;3.60;;
14048;SDS011;7099;53.922;10.728;2023-04-25T03:22:40;13.43;;;3.10;;
14048;SDS011;7099;53.922;10.728;2023-04-25T03:26:46;13.33;;;3.03;;
14048;SDS011;7099;53.922;10.728;2023-04-25T03:30:51;11.73;;;2.93;;
14048;SDS011;7099;53.922;10.728;2023-04-25T03:34:58;17.57;;;3.13;;
14048;SDS011;7099;53.922;10.728;2023-04-25T03:39:04;18.87;;;4.00;;
14048;SDS011;7099;53.922;10.728;2023-04-25T03:43:11;16.37;;;3.40;;
14048;SDS011;7099;53.922;10.728;2023-04-25T03:47:16;21.17;;;3.33;;
14048;SDS011;7099;53.922;10.728;2023-04-25T03:51:22;20.17;;;3.37;;
14048;SDS011;7099;53.922;10.728;2023-04-25T03:55:27;16.87;;;2.70;;
14048;SDS011;7099;53.922;10.728;2023-04-25T03:59:33;10.77;;;2.80;;
14048;SDS011;7099;53.922;10.728;2023-04-25T04:03:39;18.07;;;3.40;;
14048;SDS011;7099;53.922;10.728;2023-04-25T04:07:44;19.20;;;3.60;;
14048;SDS011;7099;53.922;10.728;2023-04-25T04:11:50;18.37;;;3.40;;
14048;SDS011;7099;53.922;10.728;2023-04-25T04:15:56;21.17;;;3.73;;
14048;SDS011;7099;53.922;10.728;2023-04-25T04:20:02;16.07;;;3.40;;
14048;SDS011;7099;53.922;10.728;2023-04-25T04:24:08;19.50;;;3.97;;
14048;SDS011;7099;53.922;10.728;2023-04-25T04:28:15;11.00;;;3.17;;
14048;SDS011;7099;53.922;10.728;2023-04-25T04:32:20;12.57;;;2.80;;
14048;SDS011;7099;53.922;10.728;2023-04-25T04:36:28;21.67;;;4.40;;
14048;SDS011;7099;53.922;10.728;2023-04-25T04:40:34;13.63;;;3.17;;
14048;SDS011;7099;53.922;10.728;2023-04-25T04:44:40;17.80;;;3.20;;
14048;SDS011;7099;53.922;10.728;2023-04-25T04:48:45;24.17;;;3.30;;
14048;SDS011;7099;53.922;10.728;2023-04-25T04:52:51;17.13;;;3.77;;
14048;SDS011;7099;53.922;10.728;2023-04-25T04:56:56;20.87;;;3.40;;
14048;SDS011;7099;53.922;10.728;2023-04-25T05:01:02;18.13;;;4.70;;
14048;SDS011;7099;53.922;10.728;2023-04-25T05:05:08;13.90;;;2.57;;
14048;SDS011;7099;53.922;10.728;2023-04-25T05:09:14;13.93;;;4.17;;
14048;SDS011;7099;53.922;10.728;2023-04-25T05:13:20;15.40;;;3.40;;
14048;SDS011;7099;53.922;10.728;2023-04-25T05:17:25;13.70;;;3.33;;
14048;SDS011;7099;53.922;10.728;2023-04-25T05:21:31;15.40;;;3.40;;
14048;SDS011;7099;53.922;10.728;2023-04-25T05:25:36;15.97;;;3.60;;
14048;SDS011;7099;53.922;10.728;2023-04-25T05:29:42;17.57;;;3.83;;
14048;SDS011;7099;53.922;10.728;2023-04-25T05:33:48;11.43;;;2.63;;
14048;SDS011;7099;53.922;10.728;2023-04-25T05:37:54;12.20;;;3.50;;
14048;SDS011;7099;53.922;10.728;2023-04-25T05:41:59;18.70;;;3.00;;
14048;SDS011;7099;53.922;10.728;2023-04-25T05:46:06;24.63;;;3.70;;
14048;SDS011;7099;53.922;10.728;2023-04-25T05:50:11;15.27;;;2.87;;
14048;SDS011;7099;53.922;10.728;2023-04-25T05:54:17;34.17;;;3.60;;
14048;SDS011;7099;53.922;10.728;2023-04-25T05:58:23;19.33;;;3.10;;
14048;SDS011;7099;53.922;10.728;2023-04-25T06:02:28;17.10;;;3.13;;
14048;SDS011;7099;53.922;10.728;2023-04-25T06:06:34;10.07;;;3.13;;
14048;SDS011;7099;53.922;10.728;2023-04-25T06:10:40;16.60;;;2.73;;
14048;SDS011;7099;53.922;10.728;2023-04-25T06:14:46;21.27;;;3.00;;
14048;SDS011;7099;53.922;10.728;2023-04-25T06:18:51;10.37;;;2.77;;
14048;SDS011;7099;53.922;10.728;2023-04-25T06:22:57;14.23;;;2.93;;
14048;SDS011;7099;53.922;10.728;2023-04-25T06:27:02;13.10;;;2.80;;
14048;SDS011;7099;53.922;10.728;2023-04-25T06:31:08;14.07;;;2.80;;
14048;SDS011;7099;53.922;10.728;2023-04-25T06:35:13;10.83;;;2.40;;
14048;SDS011;7099;53.922;10.728;2023-04-25T06:39:19;11.67;;;2.60;;
14048;SDS011;7099;53.922;10.728;2023-04-25T06:43:28;17.27;;;3.20;;
14048;SDS011;7099;53.922;10.728;2023-04-25T06:47:37;7.93;;;2.50;;
14048;SDS011;7099;53.922;10.728;2023-04-25T06:51:43;13.70;;;3.00;;
14048;SDS011;7099;53.922;10.728;2023-04-25T06:55:49;8.90;;;2.57;;
14048;SDS011;7099;53.922;10.728;2023-04-25T06:59:55;15.03;;;3.07;;
14048;SDS011;7099;53.922;10.728;2023-04-25T07:04:00;14.73;;;2.30;;
14048;SDS011;7099;53.922;10.728;2023-04-25T07:08:06;5.77;;;2.20;;
14048;SDS011;7099;53.922;10.728;2023-04-25T07:12:12;11.13;;;2.70;;
14048;SDS011;7099;53.922;10.728;2023-04-25T07:16:17;11.87;;;2.70;;
14048;SDS011;7099;53.922;10.728;2023-04-25T07:20:23;8.10;;;2.50;;
14048;SDS011;7099;53.922;10.728;2023-04-25T07:24:29;9.33;;;2.47;;
14048;SDS011;7099;53.922;10.728;2023-04-25T07:28:35;12.97;;;2.40;;
14048;SDS011;7099;53.922;10.728;2023-04-25T07:32:40;11.00;;;2.60;;
14048;SDS011;7099;53.922;10.728;2023-04-25T07:36:46;7.33;;;2.47;;
14048;SDS011;7099;53.922;10.728;2023-04-25T07:40:52;15.13;;;2.67;;
14048;SDS011;7099;53.922;10.728;2023-04-25T07:44:57;11.30;;;2.83;;
14048;SDS011;7099;53.922;10.728;2023-04-25T07:49:03;13.00;;;2.53;;
14048;SDS011;7099;53.922;10.728;2023-04-25T07:53:09;6.90;;;2.20;;
14048;SDS011;7099;53.922;10.728;2023-04-25T07:57:15;7.37;;;2.20;;
14048;SDS011;7099;53.922;10.728;2023-04-25T08:01:21;12.53;;;2.20;;
14048;SDS011;7099;53.922;10.728;2023-04-25T08:05:27;16.57;;;2.20;;
14048;SDS011;7099;53.922;10.728;2023-04-25T08:09:33;12.90;;;2.40;;
14048;SDS011;7099;53.922;10.728;2023-04-25T08:13:41;12.33;;;2.67;;
14048;SDS011;7099;53.922;10.728;2023-04-25T08:17:47;7.70;;;2.30;;
14048;SDS011;7099;53.922;10.728;2023-04-25T08:21:53;12.70;;;2.60;;
14048;SDS011;7099;53.922;10.728;2023-04-25T08:26:00;6.00;;;2.00;;
14048;SDS011;7099;53.922;10.728;2023-04-25T08:30:06;9.30;;;2.43;;
14048;SDS011;7099;53.922;10.728;2023-04-25T08:34:13;15.30;;;2.10;;
14048;SDS011;7099;53.922;10.728;2023-04-25T08:38:19;6.23;;;2.33;;
14048;SDS011;7099;53.922;10.728;2023-04-25T08:42:26;10.63;;;2.10;;
14048;SDS011;7099;53.922;10.728;2023-04-25T08:46:33;5.07;;;1.73;;
14048;SDS011;7099;53.922;10.728;2023-04-25T08:51:01;14.17;;;1.93;;
14048;SDS011;7099;53.922;10.728;2023-04-25T08:55:09;8.87;;;1.93;;
14048;SDS011;7099;53.922;10.728;2023-04-25T08:59:17;6.53;;;1.97;;
14048;SDS011;7099;53.922;10.728;2023-04-25T09:03:23;16.60;;;2.20;;
14048;SDS011;7099;53.922;10.728;2023-04-25T09:07:29;6.73;;;1.67;;
14048;SDS011;7099;53.922;10.728;2023-04-25T09:11:35;6.33;;;1.90;;
14048;SDS011;7099;53.922;10.728;2023-04-25T09:15:48;5.43;;;1.97;;
14048;SDS011;7099;53.922;10.728;2023-04-25T09:20:05;9.67;;;2.13;;
14048;SDS011;7099;53.922;10.728;2023-04-25T09:24:12;13.53;;;2.03;;
14048;SDS011;7099;53.922;10.728;2023-04-25T09:28:27;8.73;;;1.73;;
14048;SDS011;7099;53.922;10.728;2023-04-25T09:32:34;7.73;;;1.70;;
14048;SDS011;7099;53.922;10.728;2023-04-25T09:36:42;9.20;;;1.90;;
14048;SDS011;7099;53.922;10.728;2023-04-25T09:40:48;8.37;;;2.70;;
14048;SDS011;7099;53.922;10.728;2023-04-25T09:44:55;8.77;;;2.40;;
14048;SDS011;7099;53.922;10.728;2023-04-25T09:49:05;6.63;;;2.03;;
14048;SDS011;7099;53.922;10.728;2023-04-25T09:53:12;8.30;;;2.20;;
14048;SDS011;7099;53.922;10.728;2023-04-25T09:57:19;11.67;;;2.20;;
14048;SDS011;7099;53.922;10.728;2023-04-25T10:01:27;7.33;;;2.33;;
14048;SDS011;7099;53.922;10.728;2023-04-25T10:05:33;14.50;;;2.27;;
14048;SDS011;7099;53.922;10.728;2023-04-25T10:09:40;9.10;;;1.90;;
14048;SDS011;7099;53.922;10.728;2023-04-25T10:13:47;9.60;;;2.20;;
14048;SDS011;7099;53.922;10.728;2023-04-25T10:17:54;9.20;;;1.70;;
14048;SDS011;7099;53.922;10.728;2023-04-25T10:22:04;3.97;;;1.40;;
14048;SDS011;7099;53.922;10.728;2023-04-25T10:26:25;5.03;;;1.57;;
14048;SDS011;7099;53.922;10.728;2023-04-25T10:30:33;5.10;;;1.63;;
14048;SDS011;7099;53.922;10.728;2023-04-25T10:34:39;3.17;;;2.00;;
14048;SDS011;7099;53.922;10.728;2023-04-25T10:38:52;11.17;;;1.80;;
14048;SDS011;7099;53.922;10.728;2023-04-25T10:47:36;5.90;;;1.57;;
14048;SDS011;7099;53.922;10.728;2023-04-25T10:51:49;7.20;;;2.00;;
14048;SDS011;7099;53.922;10.728;2023-04-25T10:55:59;4.63;;;1.30;;
14048;SDS011;7099;53.922;10.728;2023-04-25T11:00:09;2.70;;;1.40;;
14048;SDS011;7099;53.922;10.728;2023-04-25T11:08:50;5.70;;;1.50;;
14048;SDS011;7099;53.922;10.728;2023-04-25T11:12:57;5.87;;;2.73;;
14048;SDS011;7099;53.922;10.728;2023-04-25T11:17:05;6.03;;;1.90;;
14048;SDS011;7099;53.922;10.728;2023-04-25T11:21:11;9.23;;;1.80;;
14048;SDS011;7099;53.922;10.728;2023-04-25T11:25:19;8.40;;;2.00;;
14048;SDS011;7099;53.922;10.728;2023-04-25T11:29:28;11.93;;;5.70;;
14048;SDS011;7099;53.922;10.728;2023-04-25T11:33:35;5.07;;;2.10;;
14048;SDS011;7099;53.922;10.728;2023-04-25T11:37:41;6.77;;;2.73;;
14048;SDS011;7099;53.922;10.728;2023-04-25T11:41:48;9.20;;;2.77;;
14048;SDS011;7099;53.922;10.728;2023-04-25T11:45:55;9.23;;;1.97;;
14048;SDS011;7099;53.922;10.728;2023-04-25T11:50:04;11.73;;;1.97;;
14048;SDS011;7099;53.922;10.728;2023-04-25T11:54:12;15.97;;;1.60;;
14048;SDS011;7099;53.922;10.728;2023-04-25T11:58:17;7.23;;;1.30;;
14048;SDS011;7099;53.922;10.728;2023-04-25T12:02:24;4.33;;;0.97;;
14048;SDS011;7099;53.922;10.728;2023-04-25T12:06:30;4.00;;;1.27;;
14048;SDS011;7099;53.922;10.728;2023-04-25T12:10:37;3.70;;;1.20;;
14048;SDS011;7099;53.922;10.728;2023-04-25T12:14:47;6.33;;;1.13;;
14048;SDS011;7099;53.922;10.728;2023-04-25T12:18:53;4.73;;;1.30;;
14048;SDS011;7099;53.922;10.728;2023-04-25T12:23:01;4.93;;;1.33;;
14048;SDS011;7099;53.922;10.728;2023-04-25T12:27:14;3.27;;;1.17;;
14048;SDS011;7099;53.922;10.728;2023-04-25T12:31:21;3.57;;;1.60;;
14048;SDS011;7099;53.922;10.728;2023-04-25T12:35:27;7.37;;;1.40;;
14048;SDS011;7099;53.922;10.728;2023-04-25T12:39:33;3.77;;;1.33;;
14048;SDS011;7099;53.922;10.728;2023-04-25T12:43:38;4.60;;;1.50;;
14048;SDS011;7099;53.922;10.728;2023-04-25T12:47:44;3.37;;;1.20;;
14048;SDS011;7099;53.922;10.728;2023-04-25T12:51:50;3.47;;;1.00;;
14048;SDS011;7099;53.922;10.728;2023-04-25T12:55:56;7.30;;;1.40;;
14048;SDS011;7099;53.922;10.728;2023-04-25T13:00:02;6.13;;;1.30;;
14048;SDS011;7099;53.922;10.728;2023-04-25T13:04:09;1.83;;;1.20;;
14048;SDS011;7099;53.922;10.728;2023-04-25T13:08:15;2.13;;;0.90;;
14048;SDS011;7099;53.922;10.728;2023-04-25T13:12:20;6.00;;;1.00;;
14048;SDS011;7099;53.922;10.728;2023-04-25T13:16:26;3.23;;;0.90;;
14048;SDS011;7099;53.922;10.728;2023-04-25T13:20:32;3.40;;;1.43;;
14048;SDS011;7099;53.922;10.728;2023-04-25T13:24:37;3.13;;;1.50;;
14048;SDS011;7099;53.922;10.728;2023-04-25T13:28:43;4.17;;;2.00;;
14048;SDS011;7099;53.922;10.728;2023-04-25T13:32:50;7.20;;;1.53;;
14048;SDS011;7099;53.922;10.728;2023-04-25T13:36:57;4.80;;;1.30;;
14048;SDS011;7099;53.922;10.728;2023-04-25T13:41:03;4.07;;;1.30;;
14048;SDS011;7099;53.922;10.728;2023-04-25T13:45:08;6.70;;;1.67;;
14048;SDS011;7099;53.922;10.728;2023-04-25T13:49:14;4.07;;;1.40;;
14048;SDS011;7099;53.922;10.728;2023-04-25T13:53:20;3.90;;;1.70;;
14048;SDS011;7099;53.922;10.728;2023-04-25T13:57:26;2.30;;;1.20;;
14048;SDS011;7099;53.922;10.728;2023-04-25T14:01:31;8.37;;;1.50;;
14048;SDS011;7099;53.922;10.728;2023-04-25T14:05:40;8.03;;;3.23;;
14048;SDS011;7099;53.922;10.728;2023-04-25T14:09:45;4.43;;;1.53;;
14048;SDS011;7099;53.922;10.728;2023-04-25T14:13:51;8.47;;;2.57;;
14048;SDS011;7099;53.922;10.728;2023-04-25T14:17:57;5.47;;;2.07;;
14048;SDS011;7099;53.922;10.728;2023-04-25T14:22:04;4.73;;;1.83;;
14048;SDS011;7099;53.922;10.728;2023-04-25T14:26:10;5.87;;;1.40;;
14048;SDS011;7099;53.922;10.728;2023-04-25T14:30:18;5.10;;;1.47;;
14048;SDS011;7099;53.922;10.728;2023-04-25T14:34:24;6.60;;;2.03;;
14048;SDS011;7099;53.922;10.728;2023-04-25T14:38:30;10.13;;;2.10;;
14048;SDS011;7099;53.922;10.728;2023-04-25T14:42:36;4.80;;;1.60;;
14048;SDS011;7099;53.922;10.728;2023-04-25T14:46:42;5.87;;;2.17;;
14048;SDS011;7099;53.922;10.728;2023-04-25T14:50:48;3.73;;;1.70;;
14048;SDS011;7099;53.922;10.728;2023-04-25T14:54:54;6.23;;;1.70;;
14048;SDS011;7099;53.922;10.728;2023-04-25T14:58:59;3.97;;;1.27;;
14048;SDS011;7099;53.922;10.728;2023-04-25T15:03:05;2.13;;;1.20;;
14048;SDS011;7099;53.922;10.728;2023-04-25T15:07:12;7.13;;;1.50;;
14048;SDS011;7099;53.922;10.728;2023-04-25T15:11:21;6.37;;;1.50;;
14048;SDS011;7099;53.922;10.728;2023-04-25T15:15:27;9.57;;;1.87;;
14048;SDS011;7099;53.922;10.728;2023-04-25T15:19:32;6.00;;;1.40;;
14048;SDS011;7099;53.922;10.728;2023-04-25T15:23:38;6.97;;;1.70;;
14048;SDS011;7099;53.922;10.728;2023-04-25T15:27:44;6.97;;;1.93;;
14048;SDS011;7099;53.922;10.728;2023-04-25T15:31:53;5.93;;;1.40;;
14048;SDS011;7099;53.922;10.728;2023-04-25T15:35:58;9.27;;;1.60;;
14048;SDS011;7099;53.922;10.728;2023-04-25T15:40:05;8.33;;;1.93;;
14048;SDS011;7099;53.922;10.728;2023-04-25T15:44:16;3.73;;;1.20;;
14048;SDS011;7099;53.922;10.728;2023-04-25T15:48:21;6.87;;;1.50;;
14048;SDS011;7099;53.922;10.728;2023-04-25T15:52:27;7.70;;;2.17;;
14048;SDS011;7099;53.922;10.728;2023-04-25T15:56:33;5.20;;;1.83;;
14048;SDS011;7099;53.922;10.728;2023-04-25T16:00:39;13.23;;;2.20;;
14048;SDS011;7099;53.922;10.728;2023-04-25T16:04:45;5.87;;;2.70;;
14048;SDS011;7099;53.922;10.728;2023-04-25T16:08:51;5.63;;;1.60;;
14048;SDS011;7099;53.922;10.728;2023-04-25T16:12:57;7.53;;;2.10;;
14048;SDS011;7099;53.922;10.728;2023-04-25T16:17:03;5.83;;;1.50;;
14048;SDS011;7099;53.922;10.728;2023-04-25T16:21:09;8.73;;;1.67;;
14048;SDS011;7099;53.922;10.728;2023-04-25T16:25:20;6.77;;;1.60;;
14048;SDS011;7099;53.922;10.728;2023-04-25T16:29:26;8.90;;;2.07;;
14048;SDS011;7099;53.922;10.728;2023-04-25T16:33:33;3.40;;;1.10;;
14048;SDS011;7099;53.922;10.728;2023-04-25T16:37:40;3.83;;;1.00;;
14048;SDS011;7099;53.922;10.728;2023-04-25T16:41:45;3.77;;;1.17;;
14048;SDS011;7099;53.922;10.728;2023-04-25T16:45:52;2.70;;;1.17;;
14048;SDS011;7099;53.922;10.728;2023-04-25T16:49:58;7.00;;;1.70;;
14048;SDS011;7099;53.922;10.728;2023-04-25T16:54:05;7.97;;;1.57;;
14048;SDS011;7099;53.922;10.728;2023-04-25T16:58:11;5.97;;;1.43;;
14048;SDS011;7099;53.922;10.728;2023-04-25T17:02:18;4.60;;;1.80;;
14048;SDS011;7099;53.922;10.728;2023-04-25T17:06:24;7.50;;;1.43;;
14048;SDS011;7099;53.922;10.728;2023-04-25T17:10:30;7.40;;;1.80;;
14048;SDS011;7099;53.922;10.728;2023-04-25T17:14:37;10.70;;;1.80;;
14048;SDS011;7099;53.922;10.728;2023-04-25T17:18:43;6.60;;;1.83;;
14048;SDS011;7099;53.922;10.728;2023-04-25T17:22:50;7.30;;;1.70;;
14048;SDS011;7099;53.922;10.728;2023-04-25T17:26:58;6.60;;;1.70;;
14048;SDS011;7099;53.922;10.728;2023-04-25T17:31:03;3.83;;;1.40;;
14048;SDS011;7099;53.922;10.728;2023-04-25T17:35:09;4.10;;;1.50;;
14048;SDS011;7099;53.922;10.728;2023-04-25T17:39:15;3.90;;;1.30;;
14048;SDS011;7099;53.922;10.728;2023-04-25T17:43:21;5.37;;;1.53;;
14048;SDS011;7099;53.922;10.728;2023-04-25T17:47:27;7.80;;;1.40;;
14048;SDS011;7099;53.922;10.728;2023-04-25T17:51:32;3.23;;;1.50;;
14048;SDS011;7099;53.922;10.728;2023-04-25T17:55:38;10.70;;;2.37;;
14048;SDS011;7099;53.922;10.728;2023-04-25T17:59:47;5.97;;;1.80;;
14048;SDS011;7099;53.922;10.728;2023-04-25T18:03:56;5.83;;;1.80;;
14048;SDS011;7099;53.922;10.728;2023-04-25T18:08:02;7.93;;;1.67;;
14048;SDS011;7099;53.922;10.728;2023-04-25T18:12:10;6.40;;;1.60;;
14048;SDS011;7099;53.922;10.728;2023-04-25T18:16:18;5.70;;;2.70;;
14048;SDS011;7099;53.922;10.728;2023-04-25T18:20:24;10.27;;;2.80;;
14048;SDS011;7099;53.922;10.728;2023-04-25T18:24:32;9.97;;;3.13;;
14048;SDS011;7099;53.922;10.728;2023-04-25T18:28:38;9.10;;;3.20;;
14048;SDS011;7099;53.922;10.728;2023-04-25T18:32:43;10.10;;;3.00;;
14048;SDS011;7099;53.922;10.728;2023-04-25T18:36:49;5.37;;;1.60;;
14048;SDS011;7099;53.922;10.728;2023-04-25T18:40:56;10.70;;;4.10;;
14048;SDS011;7099;53.922;10.728;2023-04-25T18:45:19;13.87;;;2.23;;
14048;SDS011;7099;53.922;10.728;2023-04-25T18:49:24;8.10;;;1.53;;
14048;SDS011;7099;53.922;10.728;2023-04-25T18:53:30;2.73;;;1.23;;
14048;SDS011;7099;53.922;10.728;2023-04-25T18:57:37;5.10;;;1.50;;
14048;SDS011;7099;53.922;10.728;2023-04-25T19:01:42;7.37;;;1.80;;
14048;SDS011;7099;53.922;10.728;2023-04-25T19:05:49;5.80;;;1.93;;
14048;SDS011;7099;53.922;10.728;2023-04-25T19:09:55;7.80;;;1.40;;
14048;SDS011;7099;53.922;10.728;2023-04-25T19:14:01;8.43;;;2.10;;
14048;SDS011;7099;53.922;10.728;2023-04-25T19:18:07;9.90;;;3.20;;
14048;SDS011;7099;53.922;10.728;2023-04-25T19:22:12;7.50;;;1.90;;
14048;SDS011;7099;53.922;10.728;2023-04-25T19:26:18;8.83;;;2.13;;
14048;SDS011;7099;53.922;10.728;2023-04-25T19:30:25;11.47;;;2.07;;
14048;SDS011;7099;53.922;10.728;2023-04-25T19:34:32;10.70;;;1.97;;
14048;SDS011;7099;53.922;10.728;2023-04-25T19:38:39;7.47;;;1.70;;
14048;SDS011;7099;53.922;10.728;2023-04-25T19:42:45;7.03;;;1.67;;
14048;SDS011;7099;53.922;10.728;2023-04-25T19:46:51;7.70;;;2.17;;
14048;SDS011;7099;53.922;10.728;2023-04-25T19:50:57;5.50;;;1.50;;
14048;SDS011;7099;53.922;10.728;2023-04-25T19:55:03;15.80;;;1.77;;
14048;SDS011;7099;53.922;10.728;2023-04-25T19:59:09;5.33;;;1.67;;
14048;SDS011;7099;53.922;10.728;2023-04-25T20:03:15;4.83;;;1.67;;
14048;SDS011;7099;53.922;10.728;2023-04-25T20:07:21;6.40;;;1.53;;
14048;SDS011;7099;53.922;10.728;2023-04-25T20:11:27;3.53;;;1.47;;
14048;SDS011;7099;53.922;10.728;2023-04-25T20:15:32;7.53;;;1.80;;
14048;SDS011;7099;53.922;10.728;2023-04-25T20:19:38;8.13;;;1.67;;
14048;SDS011;7099;53.922;10.728;2023-04-25T20:23:44;5.10;;;1.80;;
14048;SDS011;7099;53.922;10.728;2023-04-25T20:27:50;5.03;;;1.50;;
14048;SDS011;7099;53.922;10.728;2023-04-25T20:31:55;7.70;;;1.80;;
14048;SDS011;7099;53.922;10.728;2023-04-25T20:36:01;11.63;;;2.23;;
14048;SDS011;7099;53.922;10.728;2023-04-25T20:40:07;13.20;;;6.43;;
14048;SDS011;7099;53.922;10.728;2023-04-25T20:44:13;17.77;;;4.60;;
14048;SDS011;7099;53.922;10.728;2023-04-25T20:48:19;6.57;;;1.70;;
14048;SDS011;7099;53.922;10.728;2023-04-25T20:52:26;2.83;;;1.47;;
14048;SDS011;7099;53.922;10.728;2023-04-25T20:56:31;8.00;;;1.83;;
14048;SDS011;7099;53.922;10.728;2023-04-25T21:00:37;12.03;;;1.70;;
14048;SDS011;7099;53.922;10.728;2023-04-25T21:04:43;9.27;;;1.90;;
14048;SDS011;7099;53.922;10.728;2023-04-25T21:08:49;13.37;;;2.20;;
14048;SDS011;7099;53.922;10.728;2023-04-25T21:12:55;8.53;;;1.87;;
14048;SDS011;7099;53.922;10.728;2023-04-25T21:17:02;6.77;;;1.87;;
14048;SDS011;7099;53.922;10.728;2023-04-25T21:21:08;6.57;;;1.63;;
14048;SDS011;7099;53.922;10.728;2023-04-25T21:25:15;6.90;;;1.70;;
14048;SDS011;7099;53.922;10.728;2023-04-25T21:29:27;2.53;;;1.50;;
14048;SDS011;7099;53.922;10.728;2023-04-25T21:33:33;10.20;;;1.50;;
14048;SDS011;7099;53.922;10.728;2023-04-25T21:37:38;12.13;;;1.60;;
14048;SDS011;7099;53.922;10.728;2023-04-25T21:41:45;4.10;;;1.37;;
14048;SDS011;7099;53.922;10.728;2023-04-25T21:45:51;4.40;;;1.20;;
14048;SDS011;7099;53.922;10.728;2023-04-25T21:50:17;9.30;;;1.90;;
14048;SDS011;7099;53.922;10.728;2023-04-25T21:54:23;9.40;;;1.40;;
14048;SDS011;7099;53.922;10.728;2023-04-25T21:58:29;3.77;;;1.43;;
14048;SDS011;7099;53.922;10.728;2023-04-25T22:02:34;3.80;;;1.40;;
14048;SDS011;7099;53.922;10.728;2023-04-25T22:06:41;5.60;;;1.23;;
14048;SDS011;7099;53.922;10.728;2023-04-25T22:10:46;7.43;;;1.63;;
14048;SDS011;7099;53.922;10.728;2023-04-25T22:14:55;8.37;;;1.97;;
14048;SDS011;7099;53.922;10.728;2023-04-25T22:19:00;3.93;;;1.70;;
14048;SDS011;7099;53.922;10.728;2023-04-25T22:23:06;9.23;;;1.97;;
14048;SDS011;7099;53.922;10.728;2023-04-25T22:27:11;8.00;;;1.50;;
14048;SDS011;7099;53.922;10.728;2023-04-25T22:31:17;13.20;;;1.80;;
14048;SDS011;7099;53.922;10.728;2023-04-25T22:35:23;7.80;;;1.93;;
14048;SDS011;7099;53.922;10.728;2023-04-25T22:39:29;9.03;;;2.00;;
14048;SDS011;7099;53.922;10.728;2023-04-25T22:43:37;6.50;;;1.50;;
14048;SDS011;7099;53.922;10.728;2023-04-25T22:47:45;11.77;;;1.80;;
14048;SDS011;7099;53.922;10.728;2023-04-25T22:51:51;8.37;;;1.83;;
14048;SDS011;7099;53.922;10.728;2023-04-25T22:56:00;3.53;;;1.50;;
14048;SDS011;7099;53.922;10.728;2023-04-25T23:00:06;6.80;;;1.57;;
14048;SDS011;7099;53.922;10.728;2023-04-25T23:04:33;8.37;;;1.73;;
14048;SDS011;7099;53.922;10.728;2023-04-25T23:08:39;4.37;;;1.60;;
14048;SDS011;7099;53.922;10.728;2023-04-25T23:12:45;6.07;;;1.70;;
14048;SDS011;7099;53.922;10.728;2023-04-25T23:16:51;9.40;;;2.07;;
14048;SDS011;7099;53.922;10.728;2023-04-25T23:20:56;6.53;;;1.30;;
14048;SDS011;7099;53.922;10.728;2023-04-25T23:25:03;2.10;;;1.07;;
14048;SDS011;7099;53.922;10.728;2023-04-25T23:29:11;7.70;;;1.60;;
14048;SDS011;7099;53.922;10.728;2023-04-25T23:33:17;8.30;;;1.50;;
14048;SDS011;7099;53.922;10.728;2023-04-25T23:37:22;5.17;;;1.60;;
14048;SDS011;7099;53.922;10.728;2023-04-25T23:41:28;5.37;;;1.60;;
14048;SDS011;7099;53.922;10.728;2023-04-25T23:45:34;4.60;;;1.57;;
14048;SDS011;7099;53.922;10.728;2023-04-25T23:49:39;4.33;;;1.20;;
14048;SDS011;7099;53.922;10.728;2023-04-25T23:53:45;3.30;;;1.20;;
14048;SDS011;7099;53.922;10.728;2023-04-25T23:57:50;10.67;;;1.47;;
